createdAt,value
2023-04-17T00:01:05.803Z,1018.63
2023-04-17T00:31:05.799Z,1018.52
2023-04-17T01:01:05.916Z,1018.44
2023-04-17T01:31:05.846Z,1018.33
2023-04-17T02:01:05.808Z,1018.38
2023-04-17T02:31:05.832Z,1018.42
2023-04-17T03:01:05.832Z,1018.49
2023-04-17T03:31:05.837Z,1018.56
2023-04-17T04:01:05.811Z,1018.63
2023-04-17T04:31:05.862Z,1018.83
2023-04-17T05:01:05.905Z,1018.95
2023-04-17T05:31:05.930Z,1019.12
2023-04-17T06:01:05.858Z,1019.26
2023-04-17T06:31:05.874Z,1019.4
2023-04-17T07:01:05.869Z,1019.56
2023-04-17T07:31:05.912Z,1019.66
2023-04-17T08:01:05.864Z,1019.79
2023-04-17T08:31:05.914Z,1020.05
2023-04-17T09:01:05.878Z,1020.16
2023-04-17T09:31:05.926Z,1020.16
2023-04-17T10:01:05.974Z,1020.28
2023-04-17T10:31:05.879Z,1020.21
2023-04-17T11:01:05.886Z,1020.05
2023-04-17T11:31:05.911Z,1020
2023-04-17T12:01:05.893Z,1019.96
2023-04-17T12:31:05.917Z,1019.97
2023-04-17T13:01:05.942Z,1019.88
2023-04-17T13:31:05.966Z,1019.94
2023-04-17T14:01:05.922Z,1019.71
2023-04-17T14:31:05.967Z,1019.65
2023-04-17T15:01:06.001Z,1019.7
2023-04-17T15:31:05.941Z,1019.88
2023-04-17T16:01:05.945Z,1019.8
2023-04-17T16:31:05.965Z,1019.89
2023-04-17T17:01:05.982Z,1020.03
2023-04-17T17:31:05.960Z,1020.2
2023-04-17T18:01:05.985Z,1020.3
2023-04-17T18:31:05.993Z,1020.52
2023-04-17T19:01:05.997Z,1020.7
2023-04-17T19:31:05.966Z,1020.88
2023-04-17T20:01:06.024Z,1020.74
2023-04-17T20:31:06.016Z,1020.67
2023-04-17T21:01:05.973Z,1020.62
2023-04-17T21:31:05.989Z,1020.55
2023-04-17T22:01:06.008Z,1020.57
2023-04-17T22:31:06.024Z,1020.44
2023-04-17T23:01:06.061Z,1020.46
2023-04-17T23:31:06.021Z,1020.43
